createdAt,value
2018-06-20T00:09:49.600Z,99.99
2018-06-20T00:19:49.577Z,99.99
2018-06-20T00:29:49.595Z,99.99
2018-06-20T00:39:49.547Z,99.99
2018-06-20T00:49:49.568Z,99.99
2018-06-20T00:59:49.595Z,99.99
2018-06-20T01:09:49.575Z,99.99
2018-06-20T01:19:49.551Z,99.99
2018-06-20T01:29:49.567Z,99.99
2018-06-20T01:39:49.565Z,99.99
2018-06-20T01:49:49.682Z,99.99
2018-06-20T01:59:49.615Z,99.99
2018-06-20T02:09:49.557Z,99.99
2018-06-20T02:19:49.638Z,99.99
2018-06-20T02:29:49.554Z,99.99
2018-06-20T02:39:49.629Z,99.99
2018-06-20T02:49:49.612Z,99.99
2018-06-20T02:59:49.658Z,99.99
2018-06-20T03:09:49.576Z,99.99
2018-06-20T03:19:50.616Z,99.99
2018-06-20T03:29:49.668Z,99.99
2018-06-20T03:39:49.626Z,99.99
2018-06-20T03:49:49.676Z,99.99
2018-06-20T03:59:49.656Z,99.99
2018-06-20T04:09:49.575Z,99.99
2018-06-20T04:19:49.695Z,99.99
2018-06-20T04:29:49.616Z,99.99
2018-06-20T04:39:49.573Z,99.99
2018-06-20T04:49:49.550Z,99.99
2018-06-20T04:59:49.625Z,99.99
2018-06-20T05:09:49.584Z,99.99
2018-06-20T05:19:49.800Z,99.99
2018-06-20T05:29:49.606Z,99.99
2018-06-20T05:39:49.585Z,99.99
2018-06-20T05:49:49.667Z,99.99
2018-06-20T05:59:49.574Z,99.99
2018-06-20T06:09:49.586Z,99.99
2018-06-20T06:19:49.699Z,99.99
2018-06-20T06:29:49.707Z,99.99
2018-06-20T06:39:49.804Z,99.99
2018-06-20T06:49:49.692Z,99.99
2018-06-20T06:59:49.639Z,99.99
2018-06-20T07:09:49.682Z,99.99
2018-06-20T07:19:49.618Z,99.65
2018-06-20T07:29:49.665Z,96.07
2018-06-20T07:39:49.647Z,86.48
2018-06-20T07:49:49.629Z,93.1
2018-06-20T07:59:49.640Z,99.99
2018-06-20T08:09:49.611Z,98.39
2018-06-20T08:19:49.660Z,88.13
2018-06-20T08:29:49.645Z,87.68
2018-06-20T08:39:49.642Z,89.56
2018-06-20T08:49:49.608Z,93.79
2018-06-20T08:59:49.633Z,90.06
2018-06-20T09:09:49.613Z,92.33
2018-06-20T09:19:49.633Z,88.57
2018-06-20T09:29:49.618Z,83.95
2018-06-20T09:39:49.654Z,87.04
2018-06-20T09:49:49.667Z,83.56
2018-06-20T09:59:50.631Z,83
2018-06-20T10:09:49.651Z,81.21
2018-06-20T10:19:50.085Z,81.93
2018-06-20T10:29:49.707Z,81.34
2018-06-20T10:39:49.762Z,80.96
2018-06-20T10:49:49.690Z,82.75
2018-06-20T10:59:49.690Z,77.28
2018-06-20T11:09:49.664Z,80.46
2018-06-20T11:19:49.709Z,78.48
2018-06-20T11:29:49.767Z,78.38
2018-06-20T11:39:49.764Z,77.99
2018-06-20T11:49:49.849Z,78.87
2018-06-20T11:59:49.741Z,78.28
2018-06-20T12:09:49.674Z,80.13
2018-06-20T12:19:49.693Z,79.06
2018-06-20T12:29:49.694Z,77.84
2018-06-20T12:39:49.702Z,77.74
2018-06-20T12:49:49.721Z,79.94
2018-06-20T12:59:49.737Z,79.06
2018-06-20T13:09:49.687Z,77.45
2018-06-20T13:19:49.716Z,76.38
2018-06-20T13:29:49.733Z,76.28
2018-06-20T13:39:49.767Z,75.54
2018-06-20T13:49:49.726Z,72.63
2018-06-20T13:59:49.710Z,72.76
2018-06-20T14:09:49.718Z,72.63
2018-06-20T14:19:49.819Z,72.47
2018-06-20T14:29:49.845Z,69.61
2018-06-20T14:39:49.758Z,72.43
2018-06-20T14:49:49.806Z,72.24
2018-06-20T14:59:49.748Z,68.44
2018-06-20T15:09:49.751Z,67.38
2018-06-20T15:19:49.733Z,67.86
2018-06-20T15:29:49.716Z,67.86
2018-06-20T15:39:49.762Z,67.47
2018-06-20T15:49:49.759Z,67.96
2018-06-20T15:59:49.797Z,68.7
2018-06-20T16:09:49.755Z,66.76
2018-06-20T16:19:49.762Z,67.86
2018-06-20T16:29:50.093Z,66.02
2018-06-20T16:39:49.758Z,65.98
2018-06-20T16:49:49.767Z,63.75
2018-06-20T16:59:49.774Z,64.59
2018-06-20T17:09:49.752Z,66.53
2018-06-20T17:19:49.758Z,67.5
2018-06-20T17:29:49.768Z,68.28
2018-06-20T17:39:49.782Z,69.22
2018-06-20T17:49:49.788Z,70.06
2018-06-20T17:59:49.875Z,71.42
2018-06-20T18:09:49.763Z,71.09
2018-06-20T18:19:49.938Z,72.71
2018-06-20T18:29:49.830Z,73.86
2018-06-20T18:39:49.842Z,76.25
2018-06-20T18:49:49.860Z,78.87
2018-06-20T18:59:49.797Z,80.92
2018-06-20T19:09:49.855Z,84.66
2018-06-20T19:19:49.837Z,86.25
2018-06-20T19:29:49.778Z,89.59
2018-06-20T19:39:49.808Z,91.77
2018-06-20T19:49:49.897Z,93.71
2018-06-20T19:59:49.800Z,96.66
2018-06-20T20:09:49.962Z,99.88
2018-06-20T20:19:49.773Z,99.99
2018-06-20T20:29:49.803Z,99.99
2018-06-20T20:39:49.824Z,99.99
2018-06-20T20:49:49.777Z,99.99
2018-06-20T20:59:49.789Z,99.99
2018-06-20T21:09:49.838Z,99.99
2018-06-20T21:19:49.845Z,99.99
2018-06-20T21:29:49.789Z,99.99
2018-06-20T21:39:49.807Z,99.99
2018-06-20T21:49:49.810Z,99.99
2018-06-20T21:59:49.799Z,99.99
2018-06-20T22:11:17.317Z,99.99
2018-06-20T22:21:17.349Z,99.99
2018-06-20T22:31:17.352Z,99.99
2018-06-20T22:41:17.355Z,99.99
2018-06-20T22:51:17.470Z,99.99
2018-06-20T23:01:17.342Z,99.99
2018-06-20T23:11:17.390Z,99.99
2018-06-20T23:21:17.364Z,99.99
2018-06-20T23:31:17.381Z,99.99
2018-06-20T23:41:17.386Z,99.99
2018-06-20T23:51:17.387Z,99.99
